Time;durP1;ratioP1;P1;durP2;ratioP2;P2;SDS_P1;SDS_P2;PMS_P1;PMS_P2;Temp;Humidity;BMP_temperature;BMP_pressure;BME280_temperature;BME280_humidity;BME280_pressure;Samples;Min_cycle;Max_cycle;Signal;HPM_P1;HPM_P2
2022/06/15 00:01:49;;;;;;;;;5.25;5.25;;;;;-142.59;100.00;56100.38;5074347;27;49663;-67
2022/06/15 00:04:15;;;;;;;;;6.00;6.00;;;;;-142.59;100.00;56100.38;5074419;28;49680;-68
2022/06/15 00:06:41;;;;;;;;;5.50;5.50;;;;;-142.59;100.00;56100.38;5074618;27;49609;-69
2022/06/15 00:09:08;;;;;;;;;5.00;4.50;;;;;-142.59;100.00;56100.38;5094342;27;50688;-70
2022/06/15 00:11:38;;;;;;;;;4.50;4.50;;;;;-142.59;100.00;56100.38;5094613;27;49796;-67
2022/06/15 00:14:13;;;;;;;;;5.00;5.00;;;;;-142.59;100.00;56100.38;5094618;27;49574;-67
2022/06/15 00:16:38;;;;;;;;;4.00;4.00;;;;;-142.59;100.00;56100.38;5094483;27;49840;-69
2022/06/15 00:19:04;;;;;;;;;3.00;3.00;;;;;-142.59;100.00;56100.38;5094471;27;49631;-71
2022/06/15 00:21:30;;;;;;;;;3.00;3.00;;;;;-142.59;100.00;56100.38;5093702;27;49696;-71
2022/06/15 00:23:57;;;;;;;;;8.25;5.75;;;;;-142.59;100.00;56100.38;5093035;27;49656;-72
2022/06/15 00:26:23;;;;;;;;;6.00;6.00;;;;;-142.59;100.00;56100.38;5094517;27;49945;-73
2022/06/15 00:28:50;;;;;;;;;4.00;4.00;;;;;-142.59;100.00;56100.38;5094173;27;50483;-67
2022/06/15 00:31:16;;;;;;;;;6.00;5.25;;;;;-142.59;100.00;56100.38;5094254;27;49702;-66
2022/06/15 00:33:41;;;;;;;;;5.00;5.00;;;;;-142.59;100.00;56100.38;5094484;27;49675;-66
2022/06/15 00:36:10;;;;;;;;;6.00;4.25;;;;;-142.59;100.00;56100.38;5087470;27;49783;-66
2022/06/15 00:38:47;;;;;;;;;6.75;6.75;;;;;-142.59;100.00;56100.38;5073308;28;49774;-66
2022/06/15 00:41:16;;;;;;;;;5.25;4.75;;;;;-142.59;100.00;56100.38;5073651;28;49685;-65
2022/06/15 00:43:46;;;;;;;;;11.00;8.00;;;;;-142.59;100.00;56100.38;5089872;27;49823;-65
2022/06/15 00:46:33;;;;;;;;;4.00;4.00;;;;;-142.59;100.00;56100.38;5094328;27;49521;-66
2022/06/15 00:49:08;;;;;;;;;5.25;5.25;;;;;-142.59;100.00;56100.38;5093916;27;50441;-66
2022/06/15 00:51:34;;;;;;;;;6.75;6.75;;;;;-142.59;100.00;56100.38;5075090;27;50000;-66
2022/06/15 00:54:00;;;;;;;;;6.00;5.00;;;;;-142.59;100.00;56100.38;5074681;27;49819;-66
2022/06/15 00:56:27;;;;;;;;;5.50;5.50;;;;;-142.59;100.00;56100.38;5073775;27;50083;-66
2022/06/15 00:58:57;;;;;;;;;6.00;6.00;;;;;-142.59;100.00;56100.38;5073465;28;49743;-66
2022/06/15 01:01:23;;;;;;;;;5.25;5.25;;;;;-142.59;100.00;56100.38;5073549;28;49600;-65
2022/06/15 01:03:51;;;;;;;;;6.00;4.75;;;;;-142.59;100.00;56100.38;5073742;28;49604;-66
2022/06/15 01:06:51;;;;;;;;;7.50;6.50;;;;;-142.59;100.00;56100.38;5073567;28;49835;-67
2022/06/15 01:09:21;;;;;;;;;4.00;4.00;;;;;-142.59;100.00;56100.38;5066981;27;49684;-68
2022/06/15 01:12:06;;;;;;;;;5.75;4.75;;;;;-142.59;100.00;56100.38;5091905;27;49872;-67
2022/06/15 01:14:47;;;;;;;;;5.75;5.00;;;;;-142.59;100.00;56100.38;5093631;27;49783;-67
2022/06/15 01:17:47;;;;;;;;;4.75;4.75;;;;;-142.59;100.00;56100.38;5093885;27;49718;-71
2022/06/15 01:20:41;;;;;;;;;4.00;4.00;;;;;-142.59;100.00;56100.38;5093678;27;50569;-72
2022/06/15 01:23:26;;;;;;;;;6.00;6.00;;;;;-142.59;100.00;56100.38;5093159;27;49646;-69
2022/06/15 01:26:17;;;;;;;;;4.00;4.00;;;;;-142.59;100.00;56100.38;5086851;27;49621;-70
2022/06/15 01:29:07;;;;;;;;;5.50;5.50;;;;;-142.59;100.00;56100.38;5073300;28;50006;-68
2022/06/15 01:31:50;;;;;;;;;5.25;5.25;;;;;-142.59;100.00;56100.38;5072977;28;50484;-70
2022/06/15 01:34:29;;;;;;;;;7.00;5.75;;;;;-142.59;100.00;56100.38;5053001;28;49697;-72
2022/06/15 01:37:00;;;;;;;;;5.00;5.00;;;;;-142.59;100.00;56100.38;5055218;28;49752;-67
2022/06/15 01:39:36;;;;;;;;;6.50;5.50;;;;;-142.59;100.00;56100.38;5055883;28;50000;-67
2022/06/15 01:42:09;;;;;;;;;6.00;5.00;;;;;-142.59;100.00;56100.38;5056195;28;50644;-73
2022/06/15 01:44:39;;;;;;;;;7.00;5.25;;;;;-142.59;100.00;56100.38;5056255;28;49697;-72
2022/06/15 01:47:09;;;;;;;;;5.75;5.75;;;;;-142.59;100.00;56100.38;5061963;27;49706;-70
2022/06/15 01:49:40;;;;;;;;;6.00;5.75;;;;;-142.59;100.00;56100.38;5091233;27;49781;-67
2022/06/15 01:52:11;;;;;;;;;6.25;6.25;;;;;-142.59;100.00;56100.38;5096525;27;50355;-67
2022/06/15 01:54:42;;;;;;;;;5.75;5.25;;;;;-142.59;100.00;56100.38;5078420;27;49928;-67
2022/06/15 01:57:09;;;;;;;;;5.25;5.25;;;;;-142.59;100.00;56100.38;5096743;27;49699;-72
2022/06/15 01:59:55;;;;;;;;;4.75;4.50;;;;;-142.59;100.00;56100.38;5094377;27;49863;-66
2022/06/15 02:02:34;;;;;;;;;8.25;6.00;;;;;-142.59;100.00;56100.38;5041144;27;50563;-66
2022/06/15 02:05:22;;;;;;;;;5.50;5.00;;;;;-142.59;100.00;56100.38;5076373;27;49617;-66
2022/06/15 02:08:22;;;;;;;;;6.00;6.00;;;;;-142.59;100.00;56100.38;5075921;28;49673;-71
2022/06/15 02:11:09;;;;;;;;;6.00;6.00;;;;;-142.59;100.00;56100.38;5076187;27;49748;-67
2022/06/15 02:14:01;;;;;;;;;6.00;6.00;;;;;-142.59;100.00;56100.38;5077561;27;52125;-69
2022/06/15 02:16:32;;;;;;;;;7.00;7.00;;;;;-142.59;100.00;56100.38;5096497;27;49609;-71
2022/06/15 02:19:01;;;;;;;;;6.00;4.25;;;;;-142.59;100.00;56100.38;5096376;27;49918;-68
2022/06/15 02:21:28;;;;;;;;;6.50;5.50;;;;;-142.59;100.00;56100.38;5096689;27;49773;-67
2022/06/15 02:23:58;;;;;;;;;4.00;4.00;;;;;-142.59;100.00;56100.38;5076768;27;50750;-71
2022/06/15 02:26:32;;;;;;;;;7.00;6.25;;;;;-142.59;100.00;56100.38;5075969;28;49846;-71
2022/06/15 02:29:04;;;;;;;;;8.75;7.25;;;;;-142.59;100.00;56100.38;5075923;28;49887;-71
2022/06/15 02:31:29;;;;;;;;;5.75;5.75;;;;;-142.59;100.00;56100.38;5075923;27;49985;-72
2022/06/15 02:33:56;;;;;;;;;4.25;3.50;;;;;-142.59;100.00;56100.38;5083175;27;49850;-69
2022/06/15 02:36:23;;;;;;;;;7.75;5.75;;;;;-142.59;100.00;56100.38;5096230;27;49840;-68
2022/06/15 02:38:51;;;;;;;;;10.50;7.75;;;;;-142.59;100.00;56100.38;5095764;27;49656;-67
2022/06/15 02:41:22;;;;;;;;;6.75;6.25;;;;;-142.59;100.00;56100.38;5085618;27;49748;-68
2022/06/15 02:43:52;;;;;;;;;8.75;8.75;;;;;-142.59;100.00;56100.38;5075524;28;51872;-68
2022/06/15 02:46:18;;;;;;;;;5.00;5.00;;;;;-142.59;100.00;56100.38;5075127;28;49603;-72
2022/06/15 02:48:45;;;;;;;;;6.50;6.50;;;;;-142.59;100.00;56100.38;5075562;27;49647;-71
2022/06/15 02:51:19;;;;;;;;;7.25;6.00;;;;;-142.59;100.00;56100.38;5075441;28;49930;-66
2022/06/15 02:53:47;;;;;;;;;8.00;8.00;;;;;-142.59;100.00;56100.38;5075130;28;49595;-66
2022/06/15 02:56:14;;;;;;;;;6.00;6.00;;;;;-142.59;100.00;56100.38;5074938;27;49897;-66
2022/06/15 02:58:44;;;;;;;;;9.75;7.75;;;;;-142.59;100.00;56100.38;5075376;28;49743;-66
2022/06/15 03:01:10;;;;;;;;;8.00;8.00;;;;;-142.59;100.00;56100.38;5075644;28;49648;-66
2022/06/15 03:03:37;;;;;;;;;6.25;6.25;;;;;-142.59;100.00;56100.38;5075129;27;49814;-67
2022/06/15 03:06:02;;;;;;;;;8.00;7.75;;;;;-142.59;100.00;56100.38;5075362;28;49690;-66
2022/06/15 03:08:27;;;;;;;;;8.50;7.00;;;;;-142.59;100.00;56100.38;5074998;28;49807;-67
2022/06/15 03:10:53;;;;;;;;;9.25;9.00;;;;;-142.59;100.00;56100.38;5089674;27;49768;-67
2022/06/15 03:13:19;;;;;;;;;6.75;6.25;;;;;-142.59;100.00;56100.38;5086691;27;50916;-67
2022/06/15 03:15:46;;;;;;;;;5.25;5.25;;;;;-142.59;100.00;56100.38;5095623;27;49783;-68
2022/06/15 03:18:11;;;;;;;;;7.25;7.25;;;;;-142.59;100.00;56100.38;5095651;27;49762;-66
2022/06/15 03:20:37;;;;;;;;;7.25;7.00;;;;;-142.59;100.00;56100.38;5095611;27;49623;-66
2022/06/15 03:23:06;;;;;;;;;8.00;6.50;;;;;-142.59;100.00;56100.38;5081712;27;49720;-67
2022/06/15 03:25:32;;;;;;;;;5.75;5.75;;;;;-142.59;100.00;56100.38;5074961;27;49789;-67
2022/06/15 03:27:57;;;;;;;;;9.75;8.50;;;;;-142.59;100.00;56100.38;5074672;28;49751;-66
2022/06/15 03:30:22;;;;;;;;;6.75;6.00;;;;;-142.59;100.00;56100.38;5074419;27;49604;-66
2022/06/15 03:32:48;;;;;;;;;8.00;8.00;;;;;-142.59;100.00;56100.38;5095175;27;49628;-66
2022/06/15 03:35:13;;;;;;;;;9.50;8.00;;;;;-142.59;100.00;56100.38;5076895;27;49557;-66
2022/06/15 03:37:39;;;;;;;;;6.50;6.50;;;;;-142.59;100.00;56100.38;5094958;27;50101;-66
2022/06/15 03:40:09;;;;;;;;;7.00;7.00;;;;;-142.59;100.00;56100.38;5095290;27;49725;-67
2022/06/15 03:42:36;;;;;;;;;8.50;8.50;;;;;-142.59;100.00;56100.38;5094968;27;51195;-66
2022/06/15 03:45:02;;;;;;;;;8.25;7.00;;;;;-142.59;100.00;56100.38;5076811;27;49691;-66
2022/06/15 03:47:28;;;;;;;;;8.75;8.50;;;;;-142.59;100.00;56100.38;5087437;27;49613;-66
2022/06/15 03:49:54;;;;;;;;;13.25;11.50;;;;;-142.59;100.00;56100.38;5095237;27;49731;-66
2022/06/15 03:52:23;;;;;;;;;9.50;7.00;;;;;-142.59;100.00;56100.38;5094213;27;50580;-66
2022/06/15 03:54:49;;;;;;;;;8.00;7.00;;;;;-142.59;100.00;56100.38;5079996;27;49821;-66
2022/06/15 03:57:17;;;;;;;;;9.25;8.75;;;;;-142.59;100.00;56100.38;5074480;28;49595;-66
2022/06/15 03:59:42;;;;;;;;;8.50;8.50;;;;;-142.59;100.00;56100.38;5073708;28;49827;-67
2022/06/15 04:02:09;;;;;;;;;11.00;7.25;;;;;-142.59;100.00;56100.38;5060188;27;51578;-66
2022/06/15 04:04:34;;;;;;;;;6.25;6.25;;;;;-142.59;100.00;56100.38;5094939;27;49463;-66
2022/06/15 04:07:00;;;;;;;;;8.00;8.00;;;;;-142.59;100.00;56100.38;5075956;27;49729;-66
2022/06/15 04:09:27;;;;;;;;;10.00;7.50;;;;;-142.59;100.00;56100.38;5094576;27;49826;-66
2022/06/15 04:11:59;;;;;;;;;7.50;7.50;;;;;-142.59;100.00;56100.38;5094557;27;50634;-66
2022/06/15 04:14:26;;;;;;;;;7.00;7.00;;;;;-142.59;100.00;56100.38;5094719;27;49769;-67
2022/06/15 04:16:54;;;;;;;;;6.25;6.25;;;;;-142.59;100.00;56100.38;5089755;27;49702;-67
2022/06/15 04:19:25;;;;;;;;;9.75;9.75;;;;;-142.59;100.00;56100.38;5074523;27;49455;-68
2022/06/15 04:21:50;;;;;;;;;6.50;6.50;;;;;-142.59;100.00;56100.38;5073949;28;49913;-67
2022/06/15 04:24:17;;;;;;;;;7.25;7.25;;;;;-142.59;100.00;56100.38;5073964;28;49699;-71
2022/06/15 04:26:44;;;;;;;;;11.50;10.50;;;;;-142.59;100.00;56100.38;5074369;28;49674;-69
2022/06/15 04:29:10;;;;;;;;;11.25;9.00;;;;;-142.59;100.00;56100.38;5074202;28;49589;-68
2022/06/15 04:31:38;;;;;;;;;9.75;8.50;;;;;-142.59;100.00;56100.38;5077800;27;50624;-71
2022/06/15 04:34:04;;;;;;;;;7.75;7.00;;;;;-142.59;100.00;56100.38;5094286;27;49777;-68
2022/06/15 04:36:29;;;;;;;;;8.25;7.25;;;;;-142.59;100.00;56100.38;5088043;27;49863;-71
2022/06/15 04:38:55;;;;;;;;;6.00;6.00;;;;;-142.59;100.00;56100.38;5055655;28;49613;-74
2022/06/15 04:41:20;;;;;;;;;8.50;5.50;;;;;-142.59;100.00;56100.38;5079329;27;49788;-68
2022/06/15 04:43:45;;;;;;;;;10.00;7.00;;;;;-142.59;100.00;56100.38;5094254;27;49801;-67
2022/06/15 04:46:11;;;;;;;;;6.75;6.00;;;;;-142.59;100.00;56100.38;5094285;27;49658;-72
2022/06/15 04:48:37;;;;;;;;;7.75;7.75;;;;;-142.59;100.00;56100.38;5094225;27;49925;-72
2022/06/15 04:51:36;;;;;;;;;3.75;3.75;;;;;-142.59;100.00;56100.38;5093637;27;51334;-72
2022/06/15 04:54:01;;;;;;;;;7.00;7.00;;;;;-142.59;100.00;56100.38;5048167;28;49558;-73
2022/06/15 04:56:27;;;;;;;;;10.25;10.00;;;;;-142.59;100.00;56100.38;5053012;28;49674;-73
2022/06/15 04:58:53;;;;;;;;;6.25;6.25;;;;;-142.59;100.00;56100.38;5069107;27;49625;-68
2022/06/15 05:01:18;;;;;;;;;8.50;7.50;;;;;-142.59;100.00;56100.38;5092923;27;49717;-73
2022/06/15 05:03:44;;;;;;;;;7.50;7.25;;;;;-142.59;100.00;56100.38;5093982;27;49609;-67
2022/06/15 05:06:31;;;;;;;;;12.50;8.50;;;;;-142.59;100.00;56100.38;5094080;27;49732;-73
2022/06/15 05:08:56;;;;;;;;;10.75;8.25;;;;;-142.59;100.00;56100.38;5093018;27;50155;-72
2022/06/15 05:11:23;;;;;;;;;10.75;8.25;;;;;-142.59;100.00;56100.38;5095244;27;50758;-67
2022/06/15 05:13:48;;;;;;;;;7.50;7.50;;;;;-142.59;100.00;56100.38;5097453;27;49766;-68
2022/06/15 05:16:13;;;;;;;;;7.50;7.50;;;;;-142.59;100.00;56100.38;5093344;27;49851;-68
2022/06/15 05:18:39;;;;;;;;;9.75;9.75;;;;;-142.59;100.00;56100.38;5077392;27;49686;-68
2022/06/15 05:21:04;;;;;;;;;12.00;9.00;;;;;-142.59;100.00;56100.38;5084707;27;50283;-67
2022/06/15 05:23:30;;;;;;;;;9.50;9.50;;;;;-142.59;100.00;56100.38;5097280;27;49684;-69
2022/06/15 05:25:58;;;;;;;;;8.00;8.00;;;;;-142.59;100.00;56100.38;5097408;27;49474;-68
2022/06/15 05:28:23;;;;;;;;;10.75;9.75;;;;;-142.59;100.00;56100.38;5097267;27;49838;-68
2022/06/15 05:30:48;;;;;;;;;10.50;8.00;;;;;-142.59;100.00;56100.38;5097037;27;50211;-71
2022/06/15 05:33:14;;;;;;;;;10.25;8.00;;;;;-142.59;100.00;56100.38;5085636;27;54580;-67
2022/06/15 05:35:39;;;;;;;;;11.50;10.00;;;;;-142.59;100.00;56100.38;5076759;28;49625;-72
2022/06/15 05:38:05;;;;;;;;;13.00;10.75;;;;;-142.59;100.00;56100.38;5076679;28;49606;-68
2022/06/15 05:40:30;;;;;;;;;13.00;11.00;;;;;-142.59;100.00;56100.38;5076442;28;50861;-67
2022/06/15 05:42:55;;;;;;;;;10.00;10.00;;;;;-142.59;100.00;56100.38;5088124;27;49722;-68
2022/06/15 05:45:21;;;;;;;;;10.50;9.25;;;;;-142.59;100.00;56100.38;5097157;27;50239;-69
2022/06/15 05:47:46;;;;;;;;;12.25;9.75;;;;;-142.59;100.00;56100.38;5090646;27;49880;-67
2022/06/15 05:50:14;;;;;;;;;12.25;9.75;;;;;-142.59;100.00;56100.38;5080499;27;50065;-67
2022/06/15 05:52:39;;;;;;;;;13.00;11.00;;;;;-142.59;100.00;56100.38;5076432;27;49832;-72
2022/06/15 05:55:06;;;;;;;;;9.50;9.00;;;;;-142.59;100.00;56100.38;5076413;27;49717;-80
2022/06/15 05:57:31;;;;;;;;;12.75;11.00;;;;;-142.59;100.00;56100.38;5075299;27;49861;-72
2022/06/15 05:59:58;;;;;;;;;14.00;14.00;;;;;-142.59;100.00;56100.38;5076656;27;49568;-75
2022/06/15 06:02:27;;;;;;;;;14.00;11.25;;;;;-142.59;100.00;56100.38;5077570;27;49739;-72
2022/06/15 06:04:53;;;;;;;;;13.50;10.75;;;;;-142.59;100.00;56100.38;5087481;27;50541;-72
2022/06/15 06:07:20;;;;;;;;;8.50;8.50;;;;;-142.59;100.00;56100.38;5076536;28;49941;-69
2022/06/15 06:09:46;;;;;;;;;11.50;10.25;;;;;-142.59;100.00;56100.38;5075737;28;50723;-68
2022/06/15 06:12:11;;;;;;;;;9.75;9.50;;;;;-142.59;100.00;56100.38;5076071;28;49738;-67
2022/06/15 06:14:40;;;;;;;;;10.50;9.25;;;;;-142.59;100.00;56100.38;5076310;28;49539;-72
2022/06/15 06:17:06;;;;;;;;;13.50;10.00;;;;;-142.59;100.00;56100.38;5077512;28;49983;-68
2022/06/15 06:19:31;;;;;;;;;10.25;10.25;;;;;-142.59;100.00;56100.38;5064563;28;50832;-70
2022/06/15 06:21:56;;;;;;;;;9.00;7.75;;;;;-142.59;100.00;56100.38;5075235;28;49857;-68
2022/06/15 06:24:22;;;;;;;;;10.25;10.00;;;;;-142.59;100.00;56100.38;5075335;28;49951;-67
2022/06/15 06:26:47;;;;;;;;;12.75;10.75;;;;;-142.59;100.00;56100.38;5076050;28;49528;-69
2022/06/15 06:29:16;;;;;;;;;12.00;10.50;;;;;-142.59;100.00;56100.38;5072585;28;51181;-79
2022/06/15 06:31:42;;;;;;;;;11.50;9.50;;;;;-142.59;100.00;56100.38;5074431;27;49795;-78
2022/06/15 06:34:08;;;;;;;;;14.25;11.25;;;;;-142.59;100.00;56100.38;5084958;27;49842;-75
2022/06/15 06:36:39;;;;;;;;;16.50;13.25;;;;;-142.59;100.00;56100.38;5077070;27;49991;-75
2022/06/15 06:39:11;;;;;;;;;16.75;10.75;;;;;-142.59;100.00;56100.38;5090103;27;50594;-74
2022/06/15 06:41:37;;;;;;;;;11.75;10.25;;;;;-142.59;100.00;56100.38;5054465;28;49866;-83
2022/06/15 06:44:04;;;;;;;;;9.00;8.50;;;;;-142.59;100.00;56100.38;5082435;27;49877;-79
2022/06/15 06:46:31;;;;;;;;;10.50;8.75;;;;;-142.59;100.00;56100.38;5058700;28;50048;-83
2022/06/15 06:48:57;;;;;;;;;11.00;9.75;;;;;-142.59;100.00;56100.38;5056533;28;50770;-85
2022/06/15 06:51:23;;;;;;;;;16.25;12.25;;;;;-142.59;100.00;56100.38;5075355;28;50185;-76
2022/06/15 06:53:48;;;;;;;;;10.00;10.00;;;;;-142.59;100.00;56100.38;5075125;27;49707;-81
2022/06/15 06:56:14;;;;;;;;;11.25;10.00;;;;;-142.59;100.00;56100.38;5084403;27;49805;-72
2022/06/15 06:58:40;;;;;;;;;10.50;10.25;;;;;-142.59;100.00;56100.38;5071468;28;51538;-78
2022/06/15 07:01:06;;;;;;;;;11.75;10.25;;;;;-142.59;100.00;56100.38;5081352;27;49734;-87
2022/06/15 07:03:32;;;;;;;;;11.50;11.50;;;;;-142.59;100.00;56100.38;5089628;27;50598;-75
2022/06/15 07:06:06;;;;;;;;;12.50;11.00;;;;;-142.59;100.00;56100.38;5074415;27;49667;-72
2022/06/15 07:08:32;;;;;;;;;13.75;11.25;;;;;-142.59;100.00;56100.38;5073358;27;49884;-76
2022/06/15 07:10:58;;;;;;;;;14.50;12.25;;;;;-142.59;100.00;56100.38;5071255;27;50083;-73
2022/06/15 07:13:24;;;;;;;;;10.50;10.00;;;;;-142.59;100.00;56100.38;5054613;28;49693;-74
2022/06/15 07:15:49;;;;;;;;;13.25;9.25;;;;;-142.59;100.00;56100.38;5088806;27;49914;-81
2022/06/15 07:18:15;;;;;;;;;13.25;11.75;;;;;-142.59;100.00;56100.38;5094172;27;49949;-72
2022/06/15 07:20:40;;;;;;;;;9.75;9.50;;;;;-142.59;100.00;56100.38;5073927;27;49707;-72
2022/06/15 07:23:05;;;;;;;;;12.50;10.00;;;;;-142.59;100.00;56100.38;5078990;27;49697;-70
2022/06/15 07:25:31;;;;;;;;;11.50;10.00;;;;;-142.59;100.00;56100.38;5075155;27;49554;-83
2022/06/15 07:27:57;;;;;;;;;10.00;10.00;;;;;-142.59;100.00;56100.38;5074771;27;52039;-72
2022/06/15 07:30:25;;;;;;;;;11.25;10.50;;;;;-142.59;100.00;56100.38;5074638;27;50365;-78
2022/06/15 07:32:50;;;;;;;;;10.75;9.25;;;;;-142.59;100.00;56100.38;5075364;27;49491;-71
2022/06/15 07:35:22;;;;;;;;;12.50;10.75;;;;;-142.59;100.00;56100.38;5074401;27;49636;-71
2022/06/15 07:37:48;;;;;;;;;7.50;7.50;;;;;-142.59;100.00;56100.38;5092941;27;49606;-70
2022/06/15 07:40:14;;;;;;;;;10.00;9.75;;;;;-142.59;100.00;56100.38;5094894;27;49483;-74
2022/06/15 07:42:40;;;;;;;;;10.00;9.25;;;;;-142.59;100.00;56100.38;5077184;27;49648;-70
2022/06/15 07:45:07;;;;;;;;;8.75;8.00;;;;;-142.59;100.00;56100.38;5074590;27;49890;-69
2022/06/15 07:50:17;;;;;;;;;8.75;6.75;;;;;-142.59;100.00;56100.38;5091388;27;49636;-76
2022/06/15 07:52:46;;;;;;;;;11.25;9.25;;;;;-142.59;100.00;56100.38;5093725;27;49652;-70
2022/06/15 07:55:15;;;;;;;;;7.50;7.50;;;;;-142.59;100.00;56100.38;5094950;27;49703;-83
2022/06/15 07:57:41;;;;;;;;;8.50;7.50;;;;;-142.59;100.00;56100.38;5094585;27;50348;-71
2022/06/15 08:00:08;;;;;;;;;8.25;8.25;;;;;-142.59;100.00;56100.38;5093055;27;49469;-69
2022/06/15 08:02:33;;;;;;;;;7.50;7.50;;;;;-142.59;100.00;56100.38;5093216;27;49755;-70
2022/06/15 08:04:59;;;;;;;;;9.00;6.75;;;;;-142.59;100.00;56100.38;5078023;27;49866;-77
2022/06/15 08:07:25;;;;;;;;;9.00;9.00;;;;;-142.59;100.00;56100.38;5082011;27;50808;-74
2022/06/15 08:09:50;;;;;;;;;9.25;8.50;;;;;-142.59;100.00;56100.38;5074211;27;49736;-73
2022/06/15 08:12:16;;;;;;;;;6.50;6.00;;;;;-142.59;100.00;56100.38;5090623;27;49689;-76
2022/06/15 08:14:47;;;;;;;;;8.25;6.75;;;;;-142.59;100.00;56100.38;5074385;27;49783;-71
2022/06/15 08:17:18;;;;;;;;;10.25;9.00;;;;;-142.59;100.00;56100.38;5085849;27;49938;-75
2022/06/15 08:19:53;;;;;;;;;10.50;9.50;;;;;-142.59;100.00;56100.38;5086710;27;49751;-73
2022/06/15 08:22:20;;;;;;;;;11.50;10.00;;;;;-142.59;100.00;56100.38;5073741;27;49766;-74
2022/06/15 08:24:47;;;;;;;;;9.25;7.75;;;;;-142.59;100.00;56100.38;5075664;27;49866;-71
2022/06/15 08:27:15;;;;;;;;;8.00;8.00;;;;;-142.59;100.00;56100.38;5080423;27;50513;-73
2022/06/15 08:29:41;;;;;;;;;6.00;6.00;;;;;-142.59;100.00;56100.38;5073749;27;49741;-74
2022/06/15 08:32:09;;;;;;;;;9.25;9.25;;;;;-142.59;100.00;56100.38;5076745;27;49766;-82
2022/06/15 08:34:37;;;;;;;;;9.50;9.00;;;;;-142.59;100.00;56100.38;5089349;27;49793;-71
2022/06/15 08:37:04;;;;;;;;;7.75;7.00;;;;;-142.59;100.00;56100.38;5093658;27;50858;-71
2022/06/15 08:39:30;;;;;;;;;11.25;7.50;;;;;-142.59;100.00;56100.38;5093913;27;49700;-71
2022/06/15 08:42:07;;;;;;;;;12.25;8.50;;;;;-142.59;100.00;56100.38;5093681;27;49825;-70
2022/06/15 08:44:59;;;;;;;;;10.00;8.00;;;;;-142.59;100.00;56100.38;5087977;27;49629;-70
2022/06/15 08:47:50;;;;;;;;;9.25;9.25;;;;;-142.59;100.00;56100.38;5066250;27;49816;-68
2022/06/15 08:50:39;;;;;;;;;5.50;5.50;;;;;-142.59;100.00;56100.38;5073337;27;49772;-68
2022/06/15 08:53:16;;;;;;;;;8.00;8.00;;;;;-142.59;100.00;56100.38;5071555;27;49858;-68
2022/06/15 08:55:44;;;;;;;;;8.50;8.00;;;;;-142.59;100.00;56100.38;5071441;27;49820;-68
2022/06/15 08:58:38;;;;;;;;;4.00;4.00;;;;;-142.59;100.00;56100.38;5060384;28;52186;-70
2022/06/15 09:01:15;;;;;;;;;8.75;8.25;;;;;-142.59;100.00;56100.38;5054712;28;49657;-70
2022/06/15 09:04:10;;;;;;;;;10.50;8.00;;;;;-142.59;100.00;56100.38;5069880;27;49671;-74
2022/06/15 09:06:54;;;;;;;;;5.50;4.00;;;;;-142.59;100.00;56100.38;5071295;27;49950;-74
2022/06/15 09:09:38;;;;;;;;;9.00;9.00;;;;;-142.59;100.00;56100.38;5072692;28;49757;-71
2022/06/15 09:15:07;;;;;;;;;6.00;6.00;;;;;-142.59;100.00;56100.38;5056271;28;49790;-69
2022/06/15 09:17:34;;;;;;;;;20.25;15.25;;;;;-142.59;100.00;56100.38;5060566;28;50037;-68
2022/06/15 09:20:06;;;;;;;;;9.25;9.25;;;;;-142.59;100.00;56100.38;5051588;28;50605;-69
2022/06/15 09:22:40;;;;;;;;;8.00;6.50;;;;;-142.59;100.00;56100.38;5051900;28;49839;-70
2022/06/15 09:25:32;;;;;;;;;5.00;5.00;;;;;-142.59;100.00;56100.38;5052213;28;49808;-69
2022/06/15 09:28:05;;;;;;;;;7.75;7.75;;;;;-142.59;100.00;56100.38;5052426;28;49864;-69
2022/06/15 09:30:35;;;;;;;;;9.50;8.50;;;;;-142.59;100.00;56100.38;5052425;28;49705;-68
2022/06/15 09:33:09;;;;;;;;;7.00;7.00;;;;;-142.59;100.00;56100.38;5052583;28;49981;-73
2022/06/15 09:35:38;;;;;;;;;7.25;6.00;;;;;-142.59;100.00;56100.38;5052487;28;49706;-69
2022/06/15 09:38:06;;;;;;;;;7.00;7.00;;;;;-142.59;100.00;56100.38;5052523;28;50337;-69
2022/06/15 09:40:59;;;;;;;;;6.75;6.75;;;;;-142.59;100.00;56100.38;5052252;28;49641;-71
2022/06/15 09:43:43;;;;;;;;;7.50;7.00;;;;;-142.59;100.00;56100.38;5052084;28;49760;-68
2022/06/15 09:46:35;;;;;;;;;7.50;7.50;;;;;-142.59;100.00;56100.38;5052265;28;49845;-69
2022/06/15 09:49:12;;;;;;;;;8.00;7.00;;;;;-142.59;100.00;56100.38;5052288;28;49870;-70
2022/06/15 09:51:53;;;;;;;;;11.50;9.25;;;;;-142.59;100.00;56100.38;5058079;28;50532;-73
2022/06/15 09:54:33;;;;;;;;;7.75;6.75;;;;;-142.59;100.00;56100.38;5053923;28;49633;-69
2022/06/15 09:56:59;;;;;;;;;9.00;9.00;;;;;-142.59;100.00;56100.38;5054993;28;50040;-74
2022/06/15 09:59:26;;;;;;;;;8.50;8.50;;;;;-142.59;100.00;56100.38;5076181;28;49954;-69
2022/06/15 10:01:52;;;;;;;;;7.50;7.50;;;;;-142.59;100.00;56100.38;5075814;28;50410;-69
2022/06/15 10:04:26;;;;;;;;;11.75;9.50;;;;;-142.59;100.00;56100.38;5075901;28;49800;-69
2022/06/15 10:06:57;;;;;;;;;6.50;6.00;;;;;-142.59;100.00;56100.38;5076119;28;49866;-70
2022/06/15 10:09:30;;;;;;;;;8.00;7.00;;;;;-142.59;100.00;56100.38;5075654;28;49777;-72
2022/06/15 10:12:56;;;;;;;;;14.25;10.50;;;;;-142.59;100.00;56100.38;5075813;28;50691;-69
2022/06/15 10:14:48;;;;;;;;;11.00;9.50;;;;;-142.59;100.00;56100.38;5075775;27;49691;-70
2022/06/15 10:17:30;;;;;;;;;7.25;7.25;;;;;-142.59;100.00;56100.38;5057867;28;49711;-70
2022/06/15 10:19:56;;;;;;;;;9.50;8.00;;;;;-142.59;100.00;56100.38;5076229;28;49855;-70
2022/06/15 10:22:26;;;;;;;;;9.00;7.25;;;;;-142.59;100.00;56100.38;5075773;28;49741;-69
2022/06/15 10:24:53;;;;;;;;;10.25;7.00;;;;;-142.59;100.00;56100.38;5075714;28;49763;-69
2022/06/15 10:27:24;;;;;;;;;10.25;9.75;;;;;-142.59;100.00;56100.38;5075916;28;49785;-69
2022/06/15 10:30:08;;;;;;;;;6.50;6.50;;;;;-142.59;100.00;56100.38;5075829;28;49806;-70
2022/06/15 10:32:37;;;;;;;;;7.75;6.75;;;;;-142.59;100.00;56100.38;5074907;28;50870;-70
2022/06/15 10:35:02;;;;;;;;;8.00;7.00;;;;;-142.59;100.00;56100.38;5075509;28;49753;-70
2022/06/15 10:37:35;;;;;;;;;8.00;7.50;;;;;-142.59;100.00;56100.38;5075798;28;49743;-69
2022/06/15 10:40:17;;;;;;;;;9.75;9.75;;;;;-142.59;100.00;56100.38;5075509;28;49786;-70
2022/06/15 10:42:46;;;;;;;;;9.50;9.50;;;;;-142.59;100.00;56100.38;5075521;28;51384;-69
2022/06/15 10:45:33;;;;;;;;;8.00;8.00;;;;;-142.59;100.00;56100.38;5075711;28;49582;-76
2022/06/15 10:48:29;;;;;;;;;7.25;7.25;;;;;-142.59;100.00;56100.38;5077611;28;49770;-70
2022/06/15 10:51:04;;;;;;;;;8.00;8.00;;;;;-142.59;100.00;56100.38;5077640;28;49527;-74
2022/06/15 10:53:44;;;;;;;;;10.25;8.50;;;;;-142.59;100.00;56100.38;5076482;28;49695;-68
2022/06/15 11:02:19;;;;;;;;;7.00;6.75;;;;;-142.59;100.00;56100.38;5075378;28;49663;-69
2022/06/15 11:04:45;;;;;;;;;8.75;8.75;;;;;-142.59;100.00;56100.38;5074898;28;50473;-71
2022/06/15 11:07:22;;;;;;;;;14.00;11.25;;;;;-142.59;100.00;56100.38;5056739;28;49633;-69
2022/06/15 11:09:54;;;;;;;;;10.00;9.75;;;;;-142.59;100.00;56100.38;5074722;28;49827;-69
2022/06/15 11:12:31;;;;;;;;;9.75;9.75;;;;;-142.59;100.00;56100.38;5075315;28;49805;-68
2022/06/15 11:15:01;;;;;;;;;10.50;8.00;;;;;-142.59;100.00;56100.38;5075099;28;49716;-68
2022/06/15 11:20:47;;;;;;;;;9.50;9.50;;;;;-142.59;100.00;56100.38;5074944;28;49788;-69
2022/06/15 11:23:49;;;;;;;;;6.25;5.75;;;;;-142.59;100.00;56100.38;5075354;28;49498;-69
2022/06/15 11:29:45;;;;;;;;;10.75;9.75;;;;;-142.59;100.00;56100.38;5074863;28;49643;-69
2022/06/15 11:32:35;;;;;;;;;9.00;9.00;;;;;-142.59;100.00;56100.38;5074865;28;49974;-68
2022/06/15 11:35:12;;;;;;;;;10.00;10.00;;;;;-142.59;100.00;56100.38;5074924;28;49671;-69
2022/06/15 11:38:00;;;;;;;;;10.75;9.75;;;;;-142.59;100.00;56100.38;5074640;28;50409;-75
2022/06/15 11:40:37;;;;;;;;;9.00;8.75;;;;;-142.59;100.00;56100.38;5071853;28;49736;-70